Time;durP1;ratioP1;P1;durP2;ratioP2;P2;SDS_P1;SDS_P2;PMS_P1;PMS_P2;Temp;Humidity;BMP_temperature;BMP_pressure;BME280_temperature;BME280_humidity;BME280_pressure;Samples;Min_cycle;Max_cycle;Signal;HPM_P1;HPM_P2
2021/03/31 00:00:41;;;;;;;21.97;8.47;;;6.00;99.90;;;;;;5052603;28;20405;-70
2021/03/31 00:03:16;;;;;;;13.67;8.03;;;6.00;99.90;;;;;;5051887;28;20176;-70
2021/03/31 00:05:42;;;;;;;18.98;7.40;;;5.90;99.90;;;;;;5047819;28;20407;-70
2021/03/31 00:08:08;;;;;;;17.33;8.40;;;5.90;99.90;;;;;;5052561;28;20036;-71
2021/03/31 00:10:47;;;;;;;20.40;9.80;;;5.80;99.90;;;;;;5052751;28;20021;-70
2021/03/31 00:13:13;;;;;;;16.13;9.00;;;5.80;99.90;;;;;;5052457;28;20029;-70
2021/03/31 00:15:39;;;;;;;17.10;8.27;;;5.80;99.90;;;;;;5052493;28;20037;-70
2021/03/31 00:18:09;;;;;;;16.83;8.00;;;5.80;99.90;;;;;;5052365;28;20025;-70
2021/03/31 00:20:36;;;;;;;17.17;8.07;;;5.70;99.90;;;;;;5052681;28;20032;-70
2021/03/31 00:23:05;;;;;;;12.63;7.57;;;5.70;99.90;;;;;;5052471;28;20099;-71
2021/03/31 00:25:32;;;;;;;13.73;7.40;;;5.70;99.90;;;;;;5052384;28;20764;-70
2021/03/31 00:27:57;;;;;;;13.50;6.73;;;5.70;99.90;;;;;;5052296;28;20381;-70
2021/03/31 00:30:24;;;;;;;12.67;6.87;;;5.60;99.90;;;;;;5052229;28;20092;-70
2021/03/31 00:32:49;;;;;;;15.27;6.87;;;5.60;99.90;;;;;;5052187;28;20363;-77
2021/03/31 00:35:15;;;;;;;16.87;6.77;;;5.70;99.90;;;;;;5051479;28;20055;-77
2021/03/31 00:37:41;;;;;;;14.90;6.50;;;5.60;99.90;;;;;;5051801;28;20032;-77
2021/03/31 00:40:13;;;;;;;10.60;6.60;;;5.50;99.90;;;;;;5050801;28;20056;-76
2021/03/31 00:42:39;;;;;;;13.67;6.80;;;5.40;99.90;;;;;;5050850;28;20078;-76
2021/03/31 00:45:07;;;;;;;11.90;6.97;;;5.30;99.90;;;;;;5050561;28;20024;-76
2021/03/31 00:47:32;;;;;;;13.20;6.83;;;5.30;99.90;;;;;;5050363;28;20150;-76
2021/03/31 00:49:58;;;;;;;12.93;6.60;;;5.30;99.90;;;;;;5051415;28;20099;-77
2021/03/31 00:52:24;;;;;;;14.03;6.83;;;5.20;99.90;;;;;;5051081;28;20029;-77
2021/03/31 00:54:49;;;;;;;15.83;7.37;;;5.20;99.90;;;;;;5050888;28;20021;-77
2021/03/31 00:57:16;;;;;;;13.03;6.73;;;5.10;99.90;;;;;;5051139;28;20665;-77
2021/03/31 00:59:42;;;;;;;15.67;6.60;;;5.10;99.90;;;;;;5051701;28;20024;-77
2021/03/31 01:02:07;;;;;;;15.37;7.13;;;5.00;99.90;;;;;;5051228;28;20333;-77
2021/03/31 01:04:33;;;;;;;13.17;6.33;;;5.00;99.90;;;;;;5051397;28;20021;-77
2021/03/31 01:06:58;;;;;;;14.93;6.47;;;5.00;99.90;;;;;;5051444;28;20025;-77
2021/03/31 01:09:25;;;;;;;15.13;6.13;;;5.00;99.90;;;;;;5049793;28;20047;-77
2021/03/31 01:12:15;;;;;;;17.60;6.60;;;5.00;99.90;;;;;;5051472;28;20036;-77
2021/03/31 01:14:49;;;;;;;15.30;6.57;;;4.90;99.90;;;;;;5051325;28;20470;-77
2021/03/31 01:17:24;;;;;;;9.93;6.67;;;4.90;99.90;;;;;;5051492;28;20104;-77
2021/03/31 01:20:11;;;;;;;13.68;6.15;;;4.90;99.90;;;;;;5051072;28;20025;-77
2021/03/31 01:23:04;;;;;;;11.53;6.33;;;4.80;99.90;;;;;;5051156;28;20063;-77
2021/03/31 01:25:49;;;;;;;10.10;5.80;;;4.80;99.90;;;;;;5051211;28;20524;-77
2021/03/31 01:28:49;;;;;;;13.32;6.55;;;4.80;99.90;;;;;;5051165;28;20032;-77
2021/03/31 01:31:38;;;;;;;13.97;6.70;;;4.70;99.90;;;;;;5050960;28;20025;-77
2021/03/31 01:34:21;;;;;;;15.07;7.13;;;4.70;99.90;;;;;;5051356;28;20127;-77
2021/03/31 01:36:51;;;;;;;15.73;6.53;;;4.60;99.90;;;;;;5050850;28;20032;-77
2021/03/31 01:39:18;;;;;;;12.57;6.00;;;4.60;99.90;;;;;;5051014;28;20029;-77
2021/03/31 01:41:45;;;;;;;10.50;5.77;;;4.60;99.90;;;;;;5050832;28;20032;-77
2021/03/31 01:44:14;;;;;;;11.83;6.70;;;4.60;99.90;;;;;;5051128;28;20075;-77
2021/03/31 01:46:44;;;;;;;10.53;6.50;;;4.60;99.90;;;;;;5050991;28;20501;-77
2021/03/31 01:49:10;;;;;;;14.83;6.90;;;4.60;99.90;;;;;;5051041;28;20025;-77
2021/03/31 01:51:38;;;;;;;8.97;6.10;;;4.50;99.90;;;;;;5051022;28;20087;-77
2021/03/31 01:54:06;;;;;;;8.47;6.13;;;4.50;99.90;;;;;;5050884;28;20009;-77
2021/03/31 01:56:32;;;;;;;12.00;6.40;;;4.50;99.90;;;;;;5050753;28;20611;-77
2021/03/31 01:58:59;;;;;;;14.23;6.43;;;4.40;99.90;;;;;;5050779;28;20029;-77
2021/03/31 02:01:26;;;;;;;13.00;6.30;;;4.50;99.90;;;;;;5050871;28;20690;-77
2021/03/31 02:03:54;;;;;;;12.10;6.07;;;4.40;99.90;;;;;;5050732;28;20120;-77
2021/03/31 02:06:20;;;;;;;10.27;5.90;;;4.40;99.90;;;;;;5050735;28;20021;-77
2021/03/31 02:08:47;;;;;;;14.10;5.43;;;4.40;99.90;;;;;;5050446;28;20032;-77
2021/03/31 02:11:14;;;;;;;8.63;5.27;;;4.30;99.90;;;;;;5036364;28;20060;-77
2021/03/31 02:13:40;;;;;;;12.93;5.93;;;4.30;99.90;;;;;;5050973;28;20021;-77
2021/03/31 02:16:08;;;;;;;17.77;6.40;;;4.20;99.90;;;;;;5050468;28;20079;-77
2021/03/31 02:18:35;;;;;;;10.83;6.17;;;4.20;99.90;;;;;;5054391;28;20029;-77
2021/03/31 02:21:01;;;;;;;9.93;5.60;;;4.10;99.90;;;;;;5054546;28;20758;-77
2021/03/31 02:23:28;;;;;;;11.53;6.07;;;4.10;99.90;;;;;;5054258;28;20071;-77
2021/03/31 02:25:54;;;;;;;10.40;6.20;;;4.10;99.90;;;;;;5053125;28;20466;-77
2021/03/31 02:28:20;;;;;;;13.77;6.07;;;4.10;99.90;;;;;;5054135;28;20074;-77
2021/03/31 02:30:46;;;;;;;10.97;5.63;;;4.00;99.90;;;;;;5054369;28;20033;-77
2021/03/31 02:33:12;;;;;;;9.17;5.80;;;4.00;99.90;;;;;;5054387;28;20021;-77
2021/03/31 02:35:41;;;;;;;9.63;5.77;;;4.00;99.90;;;;;;5054910;28;20029;-70
2021/03/31 02:38:10;;;;;;;11.93;5.73;;;4.00;99.90;;;;;;5050970;28;20024;-70
2021/03/31 02:40:36;;;;;;;10.23;6.03;;;4.00;99.90;;;;;;5039456;28;20789;-70
2021/03/31 02:43:06;;;;;;;12.63;5.57;;;3.90;99.90;;;;;;5054523;28;20021;-70
2021/03/31 02:45:33;;;;;;;10.77;5.90;;;3.90;99.90;;;;;;5054516;28;20056;-70
2021/03/31 02:48:01;;;;;;;12.67;5.23;;;3.90;99.90;;;;;;5054520;28;20783;-71
2021/03/31 02:50:29;;;;;;;10.63;5.80;;;3.90;99.90;;;;;;5054266;28;20032;-70
2021/03/31 02:52:55;;;;;;;13.00;6.20;;;3.90;99.90;;;;;;5052893;28;20021;-70
2021/03/31 02:55:23;;;;;;;12.10;5.60;;;3.90;99.90;;;;;;5053875;28;20032;-70
2021/03/31 02:57:49;;;;;;;15.03;5.53;;;3.90;99.90;;;;;;5053753;28;20041;-70
2021/03/31 03:00:15;;;;;;;9.40;5.13;;;3.90;99.90;;;;;;5054319;28;20033;-70
2021/03/31 03:02:43;;;;;;;8.93;4.80;;;3.90;99.90;;;;;;5053822;28;20032;-70
2021/03/31 03:05:11;;;;;;;14.47;5.93;;;3.90;99.90;;;;;;5054017;28;20036;-70
2021/03/31 03:07:37;;;;;;;9.20;5.60;;;3.90;99.90;;;;;;5036702;28;20086;-70
2021/03/31 03:10:07;;;;;;;11.07;5.63;;;3.90;99.90;;;;;;5053749;28;20021;-70
2021/03/31 03:12:51;;;;;;;10.60;5.50;;;3.90;99.90;;;;;;5053896;28;20138;-70
2021/03/31 03:15:19;;;;;;;11.97;6.27;;;3.80;99.90;;;;;;5052589;28;20020;-70
2021/03/31 03:17:45;;;;;;;17.13;5.80;;;3.80;99.90;;;;;;5054096;28;20488;-70
2021/03/31 03:20:13;;;;;;;11.20;6.00;;;3.80;99.90;;;;;;5040203;28;20078;-70
2021/03/31 03:22:42;;;;;;;10.53;5.43;;;3.80;99.90;;;;;;5053877;28;20031;-71
2021/03/31 03:25:09;;;;;;;11.13;5.67;;;3.70;99.90;;;;;;5053615;28;20524;-70
2021/03/31 03:27:40;;;;;;;10.87;5.67;;;3.70;99.90;;;;;;5053225;28;20399;-70
2021/03/31 03:30:09;;;;;;;11.10;6.20;;;3.70;99.90;;;;;;5052728;28;20021;-70
2021/03/31 03:32:35;;;;;;;17.30;6.67;;;3.70;99.90;;;;;;5053404;28;20017;-70
2021/03/31 03:35:02;;;;;;;14.53;6.97;;;3.60;99.90;;;;;;5053446;28;20047;-70
2021/03/31 03:37:28;;;;;;;15.20;8.10;;;3.60;99.90;;;;;;5047900;28;20347;-70
2021/03/31 03:39:53;;;;;;;13.37;6.97;;;3.60;99.90;;;;;;5053404;28;20059;-71
2021/03/31 03:42:19;;;;;;;13.77;7.07;;;3.60;99.90;;;;;;5053548;28;20024;-70
2021/03/31 03:44:45;;;;;;;9.87;6.10;;;3.60;99.90;;;;;;5053182;28;20025;-70
2021/03/31 03:47:11;;;;;;;12.87;6.50;;;3.60;99.90;;;;;;5053199;28;20052;-70
2021/03/31 03:49:37;;;;;;;12.73;5.50;;;3.60;99.90;;;;;;5052855;28;20059;-71
2021/03/31 03:52:05;;;;;;;14.20;5.60;;;3.60;99.90;;;;;;5053248;28;20032;-70
2021/03/31 03:54:31;;;;;;;12.33;6.13;;;3.60;99.90;;;;;;5053402;28;20041;-70
2021/03/31 03:56:57;;;;;;;12.70;6.60;;;3.60;99.90;;;;;;5052873;28;20041;-70
2021/03/31 03:59:24;;;;;;;10.87;6.07;;;3.50;99.90;;;;;;5053168;28;20025;-70
2021/03/31 04:01:51;;;;;;;13.90;5.33;;;3.50;99.90;;;;;;5053681;28;20033;-71
2021/03/31 04:04:18;;;;;;;12.27;6.17;;;3.40;99.90;;;;;;5052608;28;20032;-70
2021/03/31 04:06:46;;;;;;;12.70;5.37;;;3.40;99.90;;;;;;5052789;28;20032;-71
2021/03/31 04:09:13;;;;;;;10.27;5.03;;;3.40;99.90;;;;;;5036977;28;20025;-70
2021/03/31 04:11:41;;;;;;;14.40;6.73;;;3.40;99.90;;;;;;5053081;28;20025;-71
2021/03/31 04:14:08;;;;;;;20.20;9.23;;;3.30;99.90;;;;;;5052859;28;20021;-70
2021/03/31 04:16:35;;;;;;;25.50;11.50;;;3.30;99.90;;;;;;5052635;28;20021;-70
2021/03/31 04:19:04;;;;;;;22.73;10.30;;;3.30;99.90;;;;;;5052394;28;20385;-70
2021/03/31 04:21:32;;;;;;;22.47;10.60;;;3.20;99.90;;;;;;5048103;28;20024;-70
2021/03/31 04:23:58;;;;;;;15.67;7.00;;;3.20;99.90;;;;;;5052567;28;20075;-71
2021/03/31 04:26:26;;;;;;;19.03;7.30;;;3.20;99.90;;;;;;5051042;28;20045;-76
2021/03/31 04:28:52;;;;;;;17.80;6.80;;;3.20;99.90;;;;;;5047908;28;20037;-71
2021/03/31 04:31:21;;;;;;;16.37;5.90;;;3.10;99.90;;;;;;5046479;28;20013;-76
2021/03/31 04:33:47;;;;;;;10.30;5.57;;;3.10;99.90;;;;;;5048891;28;20485;-76
2021/03/31 04:36:13;;;;;;;10.43;5.47;;;3.10;99.90;;;;;;5050089;28;20025;-76
2021/03/31 04:38:46;;;;;;;8.90;5.07;;;3.10;99.90;;;;;;5030071;28;20033;-76
2021/03/31 04:41:12;;;;;;;19.17;5.50;;;3.10;99.90;;;;;;5047905;28;20107;-76
2021/03/31 04:43:38;;;;;;;10.67;4.83;;;3.10;99.90;;;;;;5047291;28;20121;-75
2021/03/31 04:46:05;;;;;;;12.27;4.90;;;3.00;99.90;;;;;;5049622;28;20438;-75
2021/03/31 04:48:31;;;;;;;7.60;4.70;;;3.00;99.90;;;;;;5049152;28;20108;-75
2021/03/31 04:50:56;;;;;;;11.20;5.90;;;3.00;99.90;;;;;;5032599;28;20505;-75
2021/03/31 04:53:22;;;;;;;11.63;5.50;;;3.00;99.90;;;;;;5049599;28;20043;-75
2021/03/31 04:55:48;;;;;;;10.20;5.10;;;3.00;99.90;;;;;;5049228;28;20025;-75
2021/03/31 04:58:14;;;;;;;13.57;5.57;;;3.00;99.90;;;;;;5049287;28;20053;-75
2021/03/31 05:00:39;;;;;;;12.03;5.30;;;3.00;99.90;;;;;;5049413;28;20055;-75
2021/03/31 05:03:08;;;;;;;11.07;5.63;;;3.00;99.90;;;;;;5049328;28;20592;-75
2021/03/31 05:05:34;;;;;;;13.37;5.00;;;2.90;99.90;;;;;;5049067;28;20111;-75
2021/03/31 05:08:00;;;;;;;9.67;4.73;;;2.80;99.90;;;;;;5047320;28;20096;-75
2021/03/31 05:10:26;;;;;;;10.17;4.40;;;2.80;99.90;;;;;;5049689;28;20759;-75
2021/03/31 05:12:55;;;;;;;12.40;4.70;;;2.80;99.90;;;;;;5050031;28;20071;-76
2021/03/31 05:15:21;;;;;;;10.10;4.13;;;2.80;99.90;;;;;;5049788;28;20083;-76
2021/03/31 05:17:47;;;;;;;13.17;5.07;;;2.70;99.90;;;;;;5049745;28;20384;-76
2021/03/31 05:20:14;;;;;;;7.83;4.73;;;2.80;99.90;;;;;;5048767;28;20085;-76
2021/03/31 05:22:40;;;;;;;9.60;4.67;;;2.80;99.90;;;;;;5049722;28;20025;-76
2021/03/31 05:25:07;;;;;;;8.97;4.67;;;2.80;99.90;;;;;;5049448;28;20130;-76
2021/03/31 05:27:34;;;;;;;16.90;4.37;;;2.90;99.90;;;;;;5049739;28;20384;-75
2021/03/31 05:30:02;;;;;;;11.93;4.80;;;2.90;99.90;;;;;;5058594;28;20059;-76
2021/03/31 05:32:29;;;;;;;11.50;4.87;;;3.00;99.90;;;;;;5048176;28;20025;-76
2021/03/31 05:34:55;;;;;;;12.67;5.40;;;3.10;99.90;;;;;;5050769;28;20786;-71
2021/03/31 05:37:20;;;;;;;11.40;4.67;;;3.20;99.90;;;;;;5043378;28;20032;-70
2021/03/31 05:39:46;;;;;;;11.03;4.73;;;3.40;99.90;;;;;;5041088;28;20044;-76
2021/03/31 05:42:11;;;;;;;9.17;5.20;;;3.60;99.90;;;;;;5050761;28;20040;-76
2021/03/31 05:44:37;;;;;;;11.30;4.47;;;3.80;99.90;;;;;;5050797;28;20032;-76
2021/03/31 05:47:07;;;;;;;9.90;4.77;;;4.00;99.90;;;;;;5051153;28;20073;-76
2021/03/31 05:49:33;;;;;;;11.73;4.53;;;4.10;99.90;;;;;;5050654;28;20082;-75
2021/03/31 05:51:59;;;;;;;14.77;5.23;;;4.20;99.90;;;;;;5048937;28;20342;-74
2021/03/31 05:54:25;;;;;;;7.40;4.33;;;4.40;99.90;;;;;;5035154;28;20079;-76
2021/03/31 05:56:52;;;;;;;12.37;4.30;;;4.50;99.90;;;;;;5044000;28;20072;-78
2021/03/31 05:59:18;;;;;;;13.80;3.90;;;4.60;99.90;;;;;;5043221;28;20017;-77
2021/03/31 06:01:45;;;;;;;9.23;4.10;;;4.70;99.90;;;;;;5054246;28;20373;-71
2021/03/31 06:04:11;;;;;;;8.83;4.20;;;4.80;99.90;;;;;;5051777;28;20021;-71
2021/03/31 06:06:37;;;;;;;13.80;5.60;;;4.80;99.90;;;;;;5050064;28;20507;-74
2021/03/31 06:09:07;;;;;;;9.07;4.60;;;4.80;99.90;;;;;;5050248;28;20029;-75
2021/03/31 06:11:50;;;;;;;13.63;6.17;;;4.90;99.90;;;;;;5049231;28;20021;-75
2021/03/31 06:14:36;;;;;;;13.23;5.87;;;4.90;99.90;;;;;;5048683;28;20027;-71
2021/03/31 06:17:13;;;;;;;13.13;6.17;;;5.00;99.90;;;;;;5048617;28;20017;-71
2021/03/31 06:19:43;;;;;;;9.10;4.20;;;5.10;99.90;;;;;;5048701;28;20025;-75
2021/03/31 06:22:43;;;;;;;12.33;4.20;;;5.20;99.90;;;;;;5049347;28;20057;-76
2021/03/31 06:25:24;;;;;;;13.53;4.27;;;5.20;99.90;;;;;;5048855;28;20473;-74
2021/03/31 06:27:55;;;;;;;14.33;4.83;;;5.30;99.90;;;;;;5048989;28;20032;-76
2021/03/31 06:30:22;;;;;;;12.97;5.30;;;5.40;99.90;;;;;;5048650;28;20017;-75
2021/03/31 06:32:49;;;;;;;14.33;4.43;;;5.50;99.90;;;;;;5048915;28;20025;-77
2021/03/31 06:35:19;;;;;;;22.57;5.13;;;5.60;99.90;;;;;;5047446;28;20358;-74
2021/03/31 06:37:45;;;;;;;9.73;4.30;;;5.70;99.90;;;;;;5049774;28;20079;-74
2021/03/31 06:40:37;;;;;;;14.07;5.07;;;5.80;99.90;;;;;;5049350;28;20018;-74
2021/03/31 06:43:13;;;;;;;10.23;4.40;;;6.00;99.90;;;;;;5047312;28;20484;-74
2021/03/31 06:45:46;;;;;;;9.77;4.40;;;6.10;99.90;;;;;;5049549;28;20040;-74
2021/03/31 06:48:12;;;;;;;9.67;4.00;;;6.20;99.90;;;;;;5050608;28;20029;-74
2021/03/31 06:50:38;;;;;;;8.53;3.97;;;6.40;99.90;;;;;;5050123;28;20017;-74
2021/03/31 06:53:07;;;;;;;14.37;4.63;;;6.60;99.90;;;;;;5050353;28;20044;-74
2021/03/31 06:55:33;;;;;;;11.90;3.87;;;6.80;99.90;;;;;;5040913;28;20170;-71
2021/03/31 06:58:01;;;;;;;10.00;4.20;;;6.90;99.90;;;;;;5049952;28;20515;-71
2021/03/31 07:00:32;;;;;;;11.37;4.70;;;7.00;99.90;;;;;;5050416;28;20106;-74
2021/03/31 07:03:03;;;;;;;13.67;4.07;;;7.30;99.90;;;;;;5051689;28;20032;-74
2021/03/31 07:05:34;;;;;;;10.90;4.63;;;7.40;99.90;;;;;;5053648;28;20025;-74
2021/03/31 07:08:07;;;;;;;11.97;4.13;;;7.60;99.90;;;;;;5054005;28;20029;-77
2021/03/31 07:10:53;;;;;;;15.80;4.37;;;7.70;99.90;;;;;;5051528;28;20037;-75
2021/03/31 07:13:32;;;;;;;9.03;3.80;;;7.90;99.90;;;;;;5041654;28;20453;-75
2021/03/31 07:16:00;;;;;;;13.63;4.00;;;8.00;99.90;;;;;;5039174;28;20109;-74
2021/03/31 07:18:27;;;;;;;14.20;4.40;;;8.20;99.90;;;;;;5054311;28;20017;-74
2021/03/31 07:20:53;;;;;;;16.70;5.00;;;8.40;99.90;;;;;;5054121;28;20139;-75
2021/03/31 07:23:24;;;;;;;14.13;4.40;;;8.50;99.90;;;;;;5053598;28;20040;-77
2021/03/31 07:25:51;;;;;;;12.13;4.93;;;8.60;99.90;;;;;;5053882;28;20021;-71
2021/03/31 07:28:30;;;;;;;11.93;4.67;;;8.80;99.90;;;;;;5053699;28;20029;-71
2021/03/31 07:30:57;;;;;;;12.43;4.30;;;9.00;99.90;;;;;;5053450;28;20025;-66
2021/03/31 07:33:28;;;;;;;12.53;4.80;;;9.10;99.90;;;;;;5052574;28;20420;-71
2021/03/31 07:35:56;;;;;;;7.40;4.50;;;9.30;99.90;;;;;;5045859;28;20090;-75
2021/03/31 07:38:27;;;;;;;12.20;4.50;;;9.50;99.90;;;;;;5053724;28;20570;-74
2021/03/31 07:40:56;;;;;;;10.73;4.50;;;9.70;99.90;;;;;;5055758;28;20033;-75
2021/03/31 07:43:30;;;;;;;13.77;4.33;;;9.80;99.90;;;;;;5054463;28;20021;-75
2021/03/31 07:46:01;;;;;;;9.48;4.70;;;10.00;99.90;;;;;;5054571;28;20029;-75
2021/03/31 07:48:28;;;;;;;16.40;4.63;;;10.20;99.90;;;;;;5049872;28;20051;-76
2021/03/31 07:50:54;;;;;;;15.60;4.60;;;10.40;99.90;;;;;;5051471;28;20040;-76
2021/03/31 07:53:24;;;;;;;11.23;5.00;;;10.60;99.90;;;;;;5052803;28;20025;-76
2021/03/31 07:55:52;;;;;;;10.93;4.23;;;10.70;99.90;;;;;;5039783;28;20382;-76
2021/03/31 07:58:20;;;;;;;22.83;5.10;;;10.80;99.90;;;;;;5053143;28;20123;-74
2021/03/31 08:03:13;;;;;;;11.10;4.83;;;11.20;99.90;;;;;;5053157;28;20035;-76
2021/03/31 08:06:06;;;;;;;11.57;5.43;;;11.40;99.90;;;;;;5051853;28;20146;-74
2021/03/31 08:08:33;;;;;;;12.77;5.00;;;11.70;99.90;;;;;;5051276;28;20025;-71
2021/03/31 08:11:01;;;;;;;10.70;4.63;;;11.80;99.90;;;;;;5052908;28;20067;-76
2021/03/31 08:13:30;;;;;;;13.57;5.20;;;12.00;99.90;;;;;;5053220;28;20080;-76
2021/03/31 08:15:56;;;;;;;16.13;5.23;;;12.20;99.90;;;;;;5054932;28;20033;-72
2021/03/31 08:18:26;;;;;;;9.48;5.03;;;12.30;99.90;;;;;;5059842;28;20859;-71
2021/03/31 08:20:54;;;;;;;11.38;5.40;;;12.30;99.90;;;;;;5055892;28;20043;-75
2021/03/31 08:23:41;;;;;;;11.55;5.10;;;12.40;99.90;;;;;;5052053;28;20035;-65
2021/03/31 08:26:27;;;;;;;12.38;5.57;;;12.50;99.90;;;;;;5058414;28;20108;-65
2021/03/31 08:28:53;;;;;;;11.82;6.03;;;12.60;99.90;;;;;;5050556;28;20066;-63
2021/03/31 08:31:27;;;;;;;13.48;5.50;;;12.60;99.90;;;;;;5034340;28;20779;-64
2021/03/31 08:33:52;;;;;;;15.07;5.82;;;12.70;99.90;;;;;;5041345;28;20085;-69
2021/03/31 08:36:18;;;;;;;11.48;5.28;;;12.80;99.90;;;;;;5052999;28;20017;-64
2021/03/31 08:38:52;;;;;;;10.68;5.45;;;13.10;99.90;;;;;;5051534;28;20048;-75
2021/03/31 08:41:19;;;;;;;9.93;4.47;;;13.10;99.00;;;;;;5051128;28;20072;-75
2021/03/31 08:43:47;;;;;;;11.68;5.38;;;13.20;97.70;;;;;;5041177;28;20110;-74
2021/03/31 08:46:25;;;;;;;10.57;5.30;;;13.30;97.80;;;;;;5035212;28;20029;-75
2021/03/31 08:48:51;;;;;;;16.33;5.13;;;13.50;97.70;;;;;;5048307;28;20024;-75
2021/03/31 08:51:18;;;;;;;9.75;4.93;;;13.60;96.00;;;;;;5035213;28;20423;-75
2021/03/31 08:53:43;;;;;;;8.85;4.30;;;13.70;96.10;;;;;;5049306;28;20028;-73
2021/03/31 08:56:19;;;;;;;12.93;4.32;;;13.90;94.60;;;;;;5049608;28;20725;-73
2021/03/31 08:58:47;;;;;;;11.93;4.03;;;14.00;92.90;;;;;;5047527;28;20041;-73
2021/03/31 09:01:23;;;;;;;14.02;4.18;;;14.10;93.20;;;;;;5050148;28;20044;-73
2021/03/31 09:03:48;;;;;;;8.52;3.47;;;14.30;91.30;;;;;;5034411;28;20052;-73
2021/03/31 09:06:18;;;;;;;11.73;4.22;;;14.60;90.50;;;;;;5049201;28;20150;-73
2021/03/31 09:08:47;;;;;;;8.40;3.63;;;14.60;89.20;;;;;;5034121;28;20489;-76
2021/03/31 09:11:19;;;;;;;11.00;3.85;;;14.80;87.60;;;;;;5049579;28;20036;-77
2021/03/31 09:13:45;;;;;;;10.18;3.67;;;15.00;85.90;;;;;;5033481;28;20028;-77
2021/03/31 09:16:13;;;;;;;14.60;4.45;;;15.10;84.40;;;;;;5047147;28;20502;-76
2021/03/31 09:18:42;;;;;;;10.77;3.92;;;15.20;83.10;;;;;;5049009;28;20412;-76
2021/03/31 09:21:08;;;;;;;9.60;3.90;;;15.40;81.80;;;;;;5044688;28;20377;-76
2021/03/31 09:23:34;;;;;;;7.38;2.92;;;15.70;82.50;;;;;;5047072;28;20029;-76
2021/03/31 09:26:04;;;;;;;8.73;3.83;;;15.90;79.90;;;;;;5034376;28;20462;-76
2021/03/31 09:28:31;;;;;;;7.93;3.92;;;16.20;80.20;;;;;;5047317;28;20027;-76
2021/03/31 09:31:02;;;;;;;9.75;3.63;;;16.40;79.60;;;;;;5048758;28;20021;-76
2021/03/31 09:33:32;;;;;;;10.93;4.78;;;16.60;77.70;;;;;;5049170;28;20017;-73
2021/03/31 09:36:15;;;;;;;11.23;4.10;;;16.80;76.00;;;;;;5049262;28;20039;-73
2021/03/31 09:38:41;;;;;;;9.27;3.95;;;16.90;73.10;;;;;;5047092;28;20377;-73
2021/03/31 09:41:07;;;;;;;10.82;4.40;;;17.20;73.80;;;;;;5049783;28;20028;-73
2021/03/31 09:43:34;;;;;;;15.75;4.60;;;17.30;73.70;;;;;;5049128;28;20033;-73
2021/03/31 09:46:01;;;;;;;11.05;4.30;;;17.40;72.70;;;;;;5031703;28;20021;-73
2021/03/31 09:48:27;;;;;;;11.82;4.22;;;17.70;73.60;;;;;;5048577;28;20098;-73
2021/03/31 09:50:53;;;;;;;14.25;4.55;;;17.90;68.80;;;;;;5049224;28;20013;-75
2021/03/31 09:53:22;;;;;;;11.40;4.90;;;18.00;69.70;;;;;;5048756;28;20465;-73
2021/03/31 09:55:49;;;;;;;7.53;4.15;;;18.20;71.40;;;;;;5050091;28;20100;-79
2021/03/31 09:58:19;;;;;;;11.60;4.90;;;18.20;68.70;;;;;;5050084;28;20049;-63
2021/03/31 10:00:45;;;;;;;14.48;5.15;;;18.30;68.40;;;;;;5040910;28;20028;-67
2021/03/31 10:03:10;;;;;;;10.35;4.60;;;18.60;69.20;;;;;;5050737;28;20037;-66
2021/03/31 10:05:36;;;;;;;11.95;5.07;;;18.80;66.80;;;;;;5050328;28;20025;-63
2021/03/31 10:08:10;;;;;;;8.73;4.57;;;18.90;65.30;;;;;;5049516;28;20068;-63
2021/03/31 10:10:46;;;;;;;9.52;4.70;;;19.10;64.80;;;;;;5050684;28;20053;-66
2021/03/31 10:13:13;;;;;;;11.90;4.30;;;19.10;63.30;;;;;;5050175;28;20122;-70
2021/03/31 10:15:46;;;;;;;13.75;4.65;;;19.20;64.10;;;;;;5049580;28;20033;-69
2021/03/31 10:18:12;;;;;;;11.25;4.47;;;19.40;62.70;;;;;;5047577;28;20389;-72
2021/03/31 10:20:45;;;;;;;8.18;4.25;;;19.70;62.00;;;;;;5049310;28;20025;-65
2021/03/31 10:23:44;;;;;;;8.68;4.55;;;20.00;58.90;;;;;;5050058;28;20052;-62
2021/03/31 10:26:19;;;;;;;6.03;4.30;;;20.00;59.10;;;;;;5037969;28;20087;-62
2021/03/31 10:28:44;;;;;;;10.20;5.25;;;20.20;60.30;;;;;;5049609;28;20029;-64
2021/03/31 10:31:17;;;;;;;10.07;4.55;;;20.30;58.10;;;;;;5049094;28;20047;-65
2021/03/31 10:33:42;;;;;;;15.63;5.38;;;20.60;57.50;;;;;;5037150;28;20043;-64
2021/03/31 10:36:08;;;;;;;13.65;5.18;;;20.80;56.50;;;;;;5049967;28;20481;-63
2021/03/31 10:39:21;;;;;;;9.88;5.30;;;20.80;57.10;;;;;;5051711;28;20439;-65
2021/03/31 10:52:09;;;;;;;13.07;5.90;;;21.10;55.50;;;;;;5049189;28;20033;-66
2021/03/31 10:54:36;;;;;;;10.02;6.30;;;21.30;54.90;;;;;;5052839;28;20024;-64
2021/03/31 10:57:07;;;;;;;16.02;6.13;;;21.40;54.90;;;;;;5053656;28;20067;-64
2021/03/31 10:59:33;;;;;;;12.35;6.90;;;21.20;54.70;;;;;;5041989;28;20044;-64
2021/03/31 11:01:59;;;;;;;11.13;6.45;;;21.70;54.60;;;;;;5052977;28;20033;-64
2021/03/31 11:04:25;;;;;;;14.25;7.03;;;21.90;54.40;;;;;;5052921;28;20081;-75
2021/03/31 11:06:51;;;;;;;13.27;6.70;;;22.00;53.40;;;;;;5052731;28;20032;-66
2021/03/31 11:09:17;;;;;;;14.15;7.80;;;22.00;53.80;;;;;;5052050;28;20028;-66
2021/03/31 11:11:43;;;;;;;12.85;6.65;;;22.10;52.70;;;;;;5051936;28;20033;-66
2021/03/31 11:14:08;;;;;;;13.18;7.20;;;22.30;53.10;;;;;;5051776;28;20036;-66
2021/03/31 11:16:35;;;;;;;19.80;8.15;;;22.10;52.20;;;;;;5051883;28;20159;-66
2021/03/31 11:27:13;;;;;;;16.20;8.30;;;22.50;51.60;;;;;;5048207;28;20039;-65
2021/03/31 11:29:38;;;;;;;17.50;8.48;;;22.40;50.30;;;;;;5049267;28;20115;-65
2021/03/31 11:32:07;;;;;;;13.68;9.00;;;22.50;51.20;;;;;;5050537;28;21324;-64
2021/03/31 11:34:33;;;;;;;16.08;8.82;;;22.50;51.70;;;;;;5050911;28;20044;-65
2021/03/31 11:36:58;;;;;;;15.25;7.88;;;22.30;51.60;;;;;;5054399;28;20025;-65
2021/03/31 11:39:24;;;;;;;16.33;9.23;;;22.50;53.20;;;;;;5049410;28;20477;-64
2021/03/31 11:41:49;;;;;;;17.65;9.27;;;22.80;51.20;;;;;;5051379;28;20481;-65
2021/03/31 11:44:15;;;;;;;15.60;9.82;;;22.90;52.10;;;;;;5051095;28;20477;-65
2021/03/31 11:46:41;;;;;;;21.55;9.23;;;22.60;51.70;;;;;;5050927;28;20036;-65
2021/03/31 11:49:06;;;;;;;17.83;9.25;;;22.60;52.60;;;;;;5048871;28;20033;-72
2021/03/31 11:51:32;;;;;;;16.60;10.35;;;22.60;51.00;;;;;;5051050;28;20048;-65
2021/03/31 11:53:57;;;;;;;18.77;10.40;;;22.80;51.00;;;;;;5051247;28;20025;-65
2021/03/31 11:56:23;;;;;;;17.83;10.70;;;22.80;50.70;;;;;;5049386;28;20082;-65
2021/03/31 11:58:49;;;;;;;19.42;10.27;;;22.80;50.80;;;;;;5049909;28;20035;-65
2021/03/31 12:01:14;;;;;;;18.15;9.88;;;22.50;52.30;;;;;;5048819;28;20412;-65
2021/03/31 12:03:40;;;;;;;20.02;9.93;;;22.80;52.10;;;;;;5050570;28;20560;-64
2021/03/31 12:06:05;;;;;;;18.00;10.50;;;23.20;50.90;;;;;;5050770;28;20128;-65
2021/03/31 12:08:31;;;;;;;15.68;9.90;;;23.30;50.50;;;;;;5048431;28;20037;-64
2021/03/31 12:10:57;;;;;;;15.57;9.38;;;23.10;51.10;;;;;;5049821;28;20067;-64
2021/03/31 12:13:22;;;;;;;21.15;9.93;;;23.20;50.70;;;;;;5049397;28;20350;-64
2021/03/31 12:15:48;;;;;;;17.77;10.65;;;23.20;50.20;;;;;;5050160;28;20158;-64
2021/03/31 12:18:13;;;;;;;18.60;10.38;;;23.10;49.80;;;;;;5048382;28;20039;-64
2021/03/31 12:20:39;;;;;;;18.77;10.13;;;23.20;49.90;;;;;;5050023;28;20032;-64
2021/03/31 12:23:05;;;;;;;19.85;9.43;;;23.40;50.50;;;;;;5049357;28;20079;-65
2021/03/31 12:25:31;;;;;;;17.90;10.10;;;23.30;51.20;;;;;;5050486;28;20060;-64
2021/03/31 12:27:59;;;;;;;17.60;9.85;;;23.30;49.40;;;;;;5049765;28;20057;-67
2021/03/31 12:30:25;;;;;;;15.90;9.82;;;23.60;50.40;;;;;;5050490;28;20100;-67
2021/03/31 12:32:51;;;;;;;19.30;10.63;;;23.40;49.20;;;;;;5049744;28;20115;-66
2021/03/31 12:35:17;;;;;;;17.80;10.30;;;23.20;50.20;;;;;;5051321;28;20021;-65
2021/03/31 12:37:42;;;;;;;19.20;10.25;;;23.30;49.40;;;;;;5051353;28;20029;-65
2021/03/31 12:40:10;;;;;;;15.77;10.13;;;23.00;50.90;;;;;;5050839;28;20032;-65
2021/03/31 12:42:36;;;;;;;17.70;10.52;;;22.90;51.80;;;;;;5050793;28;20035;-64
2021/03/31 12:45:04;;;;;;;17.27;9.82;;;23.20;51.60;;;;;;5050369;28;20025;-65
2021/03/31 12:47:29;;;;;;;18.77;10.70;;;23.20;49.60;;;;;;5051387;28;20018;-64
2021/03/31 12:49:55;;;;;;;20.23;10.23;;;23.20;50.70;;;;;;5050850;28;20029;-65
2021/03/31 12:52:28;;;;;;;18.67;10.63;;;23.30;50.70;;;;;;5050978;28;20017;-64
2021/03/31 12:57:23;;;;;;;16.60;10.77;;;23.50;49.70;;;;;;5050318;28;20037;-64
2021/03/31 12:59:49;;;;;;;16.55;10.40;;;23.60;49.90;;;;;;5050310;28;20037;-67
2021/03/31 13:02:15;;;;;;;17.13;10.90;;;23.70;49.00;;;;;;5050081;28;20033;-67
2021/03/31 13:04:41;;;;;;;21.08;10.63;;;23.60;49.70;;;;;;5049754;28;20028;-67
2021/03/31 13:07:07;;;;;;;18.85;10.48;;;23.40;49.60;;;;;;5050347;28;20033;-66
2021/03/31 13:09:33;;;;;;;21.92;12.32;;;23.70;49.70;;;;;;5050350;28;20183;-65
2021/03/31 13:12:00;;;;;;;17.50;10.10;;;23.70;49.40;;;;;;5050276;28;20029;-64
2021/03/31 13:17:09;;;;;;;19.65;10.63;;;24.10;49.00;;;;;;5048661;28;20123;-66